TimeEDT,TemperatureF,Dew PointF,Humidity,Sea Level PressureIn,VisibilityMPH,Wind Direction,Wind SpeedMPH,Gust SpeedMPH,PrecipitationIn,Events,Conditions,WindDirDegrees,DateUTC
12:53 AM,66.0,59.0,78,29.96,10.0,NW,4.6,-,N/A,,Mostly Cloudy,320,2013-07-11 04:53:00
1:53 AM,64.9,59.0,81,29.97,10.0,NNW,5.8,-,N/A,,Mostly Cloudy,340,2013-07-11 05:53:00
2:53 AM,64.0,57.9,80,29.97,10.0,North,4.6,-,N/A,,Mostly Cloudy,350,2013-07-11 06:53:00
3:53 AM,64.0,57.0,78,29.98,10.0,North,6.9,-,N/A,,Mostly Cloudy,350,2013-07-11 07:53:00
4:53 AM,63.0,57.0,81,29.99,10.0,North,8.1,-,N/A,,Scattered Clouds,350,2013-07-11 08:53:00
5:53 AM,63.0,57.0,81,30.01,10.0,NNE,5.8,-,N/A,,Mostly Cloudy,30,2013-07-11 09:53:00
6:53 AM,64.0,57.0,78,30.03,10.0,North,4.6,-,N/A,,Overcast,360,2013-07-11 10:53:00
7:53 AM,64.9,57.9,78,30.04,10.0,NNE,5.8,-,N/A,,Mostly Cloudy,20,2013-07-11 11:53:00
8:53 AM,69.1,59.0,70,30.05,10.0,NNE,9.2,-,N/A,,Clear,20,2013-07-11 12:53:00
9:53 AM,71.1,57.0,61,30.06,10.0,NNE,9.2,-,N/A,,Clear,30,2013-07-11 13:53:00
10:53 AM,73.0,57.0,57,30.06,10.0,NE,11.5,16.1,N/A,,Scattered Clouds,40,2013-07-11 14:53:00
11:53 AM,75.0,55.9,51,30.07,10.0,NE,9.2,-,N/A,,Partly Cloudy,40,2013-07-11 15:53:00
12:53 PM,75.9,55.0,48,30.06,10.0,NE,6.9,-,N/A,,Scattered Clouds,40,2013-07-11 16:53:00
1:53 PM,78.1,55.0,45,30.06,10.0,North,6.9,-,N/A,,Partly Cloudy,10,2013-07-11 17:53:00
2:53 PM,78.1,55.9,46,30.05,10.0,NNE,10.4,-,N/A,,Clear,30,2013-07-11 18:53:00
3:53 PM,78.1,55.9,46,30.05,10.0,NNW,9.2,-,N/A,,Partly Cloudy,340,2013-07-11 19:53:00
4:53 PM,78.1,55.0,45,30.04,10.0,North,8.1,-,N/A,,Partly Cloudy,10,2013-07-11 20:53:00
5:53 PM,80.1,55.9,43,30.03,10.0,Variable,6.9,16.1,N/A,,Clear,0,2013-07-11 21:53:00
6:53 PM,78.1,57.0,48,30.03,10.0,North,4.6,-,N/A,,Clear,350,2013-07-11 22:53:00
7:53 PM,77.0,57.0,50,30.02,10.0,North,3.5,-,N/A,,Clear,350,2013-07-11 23:53:00
8:53 PM,72.0,60.1,66,30.02,10.0,Calm,Calm,-,N/A,,Clear,0,2013-07-12 00:53:00
9:53 PM,68.0,60.1,76,30.03,10.0,Calm,Calm,-,N/A,,Scattered Clouds,0,2013-07-12 01:53:00
10:53 PM,66.0,60.1,81,30.04,10.0,Calm,Calm,-,N/A,,Mostly Cloudy,0,2013-07-12 02:53:00
11:53 PM,64.9,60.1,84,30.05,10.0,NNE,3.5,-,N/A,,Clear,20,2013-07-12 03:53:00